EWG755 LOWW-EDDK
Flight info
| Callsign | EWG755 |
|---|---|
| Flight time | 1h 14m |
| Altitude | 32000 |
| Route | BUWUT DCT DITIS DCT RAPET T843 VELIS DCT MASEK T841 ERNEP ERNEP1B |
| Aircraft | A320/M-SDE3FGHIRWY/LB1 |
Departure
| Time | 2026-05-06 17:52 |
|---|---|
| Airport | Vienna International Airport (LOWW) |
Arrival
| Time | 2026-05-06 19:06 |
|---|---|
| Airport | Cologne Bonn Airport (EDDK) |
| Time | Latitude | Longitude | Altitude | Speed | Heading |
|---|---|---|---|---|---|
| 2026-05-06 17:14 | 48.12007 | 16.55874 | 597 ft | 0 kts | 296° |
| 2026-05-06 17:40 | 48.11997 | 16.55901 | 597 ft | 4 kts | 300° |
| 2026-05-06 17:40 | 48.11984 | 16.55936 | 598 ft | 4 kts | 289° |
| 2026-05-06 17:40 | 48.11980 | 16.55958 | 598 ft | 3 kts | 204° |
| 2026-05-06 17:40 | 48.11982 | 16.55960 | 598 ft | 1 kts | 201° |
| 2026-05-06 17:44 | 48.11976 | 16.55956 | 598 ft | 1 kts | 201° |
| 2026-05-06 17:44 | 48.11975 | 16.55955 | 598 ft | 0 kts | 201° |
| 2026-05-06 17:44 | 48.11929 | 16.55926 | 600 ft | 12 kts | 205° |
| 2026-05-06 17:44 | 48.11872 | 16.55883 | 615 ft | 6 kts | 206° |
| 2026-05-06 17:45 | 48.11832 | 16.55855 | 608 ft | 8 kts | 204° |
| 2026-05-06 17:45 | 48.11796 | 16.55830 | 610 ft | 4 kts | 205° |
| 2026-05-06 17:45 | 48.11759 | 16.55803 | 622 ft | 9 kts | 206° |
| 2026-05-06 17:45 | 48.11691 | 16.55811 | 621 ft | 11 kts | 136° |
| 2026-05-06 17:46 | 48.11662 | 16.55883 | 627 ft | 6 kts | 116° |
| 2026-05-06 17:46 | 48.11637 | 16.55963 | 617 ft | 12 kts | 116° |
| 2026-05-06 17:46 | 48.11598 | 16.56083 | 625 ft | 13 kts | 116° |
| 2026-05-06 17:46 | 48.11560 | 16.56200 | 619 ft | 12 kts | 116° |
| 2026-05-06 17:47 | 48.11525 | 16.56306 | 624 ft | 14 kts | 115° |
| 2026-05-06 17:47 | 48.11469 | 16.56477 | 617 ft | 19 kts | 115° |
| 2026-05-06 17:47 | 48.11421 | 16.56626 | 621 ft | 14 kts | 116° |
| 2026-05-06 17:47 | 48.11379 | 16.56755 | 621 ft | 14 kts | 116° |
| 2026-05-06 17:48 | 48.11328 | 16.56912 | 625 ft | 17 kts | 116° |
| 2026-05-06 17:48 | 48.11277 | 16.57067 | 622 ft | 17 kts | 116° |
| 2026-05-06 17:48 | 48.11232 | 16.57219 | 624 ft | 12 kts | 100° |
| 2026-05-06 17:48 | 48.11275 | 16.57302 | 621 ft | 11 kts | 24° |
| 2026-05-06 17:49 | 48.11377 | 16.57377 | 614 ft | 22 kts | 26° |
| 2026-05-06 17:49 | 48.11531 | 16.57494 | 610 ft | 27 kts | 28° |
| 2026-05-06 17:49 | 48.11655 | 16.57538 | 621 ft | 14 kts | 356° |
| 2026-05-06 17:49 | 48.11715 | 16.57597 | 607 ft | 9 kts | 50° |
| 2026-05-06 17:50 | 48.11772 | 16.57621 | 619 ft | 11 kts | 351° |
| 2026-05-06 17:50 | 48.11857 | 16.57659 | 603 ft | 14 kts | 76° |
| 2026-05-06 17:50 | 48.11859 | 16.57788 | 603 ft | 12 kts | 94° |
| 2026-05-06 17:50 | 48.11826 | 16.57882 | 602 ft | 9 kts | 171° |
| 2026-05-06 17:51 | 48.11757 | 16.57913 | 604 ft | 16 kts | 163° |
| 2026-05-06 17:51 | 48.11417 | 16.58056 | 610 ft | 86 kts | 164° |
| 2026-05-06 17:51 | 48.10643 | 16.58382 | 618 ft | 143 kts | 164° |
| 2026-05-06 17:51 | 48.09551 | 16.58840 | 786 ft | 171 kts | 165° |
| 2026-05-06 17:52 | 48.08412 | 16.59313 | 1472 ft | 170 kts | 165° |
| 2026-05-06 17:52 | 48.07276 | 16.59792 | 2129 ft | 171 kts | 165° |
| 2026-05-06 17:52 | 48.06106 | 16.60467 | 2472 ft | 192 kts | 148° |
| 2026-05-06 17:52 | 48.05103 | 16.61918 | 2795 ft | 211 kts | 122° |
| 2026-05-06 17:53 | 48.04579 | 16.64004 | 3367 ft | 218 kts | 96° |
| 2026-05-06 17:53 | 48.04707 | 16.66256 | 4109 ft | 220 kts | 70° |
| 2026-05-06 17:53 | 48.05488 | 16.68211 | 4829 ft | 222 kts | 44° |
| 2026-05-06 17:53 | 48.06727 | 16.69738 | 5180 ft | 245 kts | 37° |
| 2026-05-06 17:54 | 48.08173 | 16.71351 | 5250 ft | 267 kts | 36° |
| 2026-05-06 17:54 | 48.09686 | 16.73005 | 5257 ft | 271 kts | 36° |
| 2026-05-06 17:54 | 48.11218 | 16.74679 | 5342 ft | 277 kts | 36° |
| 2026-05-06 17:54 | 48.12776 | 16.76392 | 6231 ft | 277 kts | 36° |
| 2026-05-06 17:55 | 48.14444 | 16.77826 | 7115 ft | 278 kts | 21° |
| 2026-05-06 17:55 | 48.16316 | 16.78561 | 7943 ft | 281 kts | 6° |
| 2026-05-06 17:55 | 48.18272 | 16.78516 | 8751 ft | 283 kts | 350° |
| 2026-05-06 17:55 | 48.20222 | 16.77983 | 9539 ft | 287 kts | 349° |
| 2026-05-06 17:56 | 48.22200 | 16.77450 | 10303 ft | 290 kts | 349° |
| 2026-05-06 17:56 | 48.24233 | 16.76913 | 10744 ft | 308 kts | 349° |
| 2026-05-06 17:56 | 48.26417 | 16.76337 | 11023 ft | 328 kts | 349° |
| 2026-05-06 17:56 | 48.28688 | 16.75741 | 11635 ft | 335 kts | 349° |
| 2026-05-06 17:57 | 48.30996 | 16.75137 | 12326 ft | 339 kts | 349° |
| 2026-05-06 17:57 | 48.33329 | 16.74478 | 13014 ft | 343 kts | 345° |
| 2026-05-06 17:57 | 48.35566 | 16.73195 | 13673 ft | 346 kts | 329° |
| 2026-05-06 17:57 | 48.37446 | 16.70938 | 14319 ft | 349 kts | 310° |
| 2026-05-06 17:58 | 48.38761 | 16.67866 | 14956 ft | 352 kts | 297° |
| 2026-05-06 17:58 | 48.39886 | 16.64575 | 15590 ft | 355 kts | 296° |
| 2026-05-06 17:58 | 48.41003 | 16.61248 | 16205 ft | 358 kts | 296° |
| 2026-05-06 17:58 | 48.42121 | 16.57886 | 16798 ft | 362 kts | 296° |
| 2026-05-06 17:59 | 48.43254 | 16.54472 | 17386 ft | 365 kts | 296° |
| 2026-05-06 17:59 | 48.44394 | 16.51045 | 17958 ft | 368 kts | 296° |
| 2026-05-06 17:59 | 48.45548 | 16.47581 | 18518 ft | 371 kts | 296° |
| 2026-05-06 17:59 | 48.46712 | 16.44093 | 19054 ft | 375 kts | 296° |
| 2026-05-06 18:00 | 48.47890 | 16.40567 | 19594 ft | 378 kts | 296° |
| 2026-05-06 18:00 | 48.49073 | 16.37015 | 20143 ft | 381 kts | 296° |
| 2026-05-06 18:00 | 48.50267 | 16.33427 | 20672 ft | 384 kts | 296° |
| 2026-05-06 18:00 | 48.51469 | 16.29817 | 21187 ft | 387 kts | 296° |
| 2026-05-06 18:01 | 48.52679 | 16.26175 | 21685 ft | 390 kts | 296° |
| 2026-05-06 18:01 | 48.53898 | 16.22504 | 22190 ft | 393 kts | 296° |
| 2026-05-06 18:01 | 48.55125 | 16.18798 | 22685 ft | 396 kts | 296° |
| 2026-05-06 18:01 | 48.56327 | 16.15153 | 23137 ft | 399 kts | 296° |
| 2026-05-06 18:02 | 48.57566 | 16.11400 | 23594 ft | 402 kts | 296° |
| 2026-05-06 18:02 | 48.58815 | 16.07606 | 24044 ft | 404 kts | 296° |
| 2026-05-06 18:02 | 48.60070 | 16.03790 | 24471 ft | 407 kts | 296° |
| 2026-05-06 18:02 | 48.61329 | 15.99957 | 24884 ft | 410 kts | 296° |
| 2026-05-06 18:03 | 48.62599 | 15.96081 | 25287 ft | 412 kts | 296° |
| 2026-05-06 18:03 | 48.63871 | 15.92188 | 25669 ft | 415 kts | 296° |
| 2026-05-06 18:03 | 48.64717 | 15.89594 | 25921 ft | 416 kts | 296° |
| 2026-05-06 18:03 | 48.65999 | 15.85662 | 26288 ft | 418 kts | 296° |
| 2026-05-06 18:04 | 48.67285 | 15.81720 | 26639 ft | 421 kts | 296° |
| 2026-05-06 18:04 | 48.68584 | 15.77739 | 26979 ft | 423 kts | 296° |
| 2026-05-06 18:04 | 48.69893 | 15.73719 | 27307 ft | 426 kts | 296° |
| 2026-05-06 18:04 | 48.71201 | 15.69688 | 27633 ft | 428 kts | 296° |
| 2026-05-06 18:05 | 48.72534 | 15.65578 | 27966 ft | 431 kts | 296° |
| 2026-05-06 18:05 | 48.73840 | 15.61539 | 28278 ft | 433 kts | 296° |
| 2026-05-06 18:05 | 48.75163 | 15.57437 | 28580 ft | 435 kts | 296° |
| 2026-05-06 18:05 | 48.76496 | 15.53305 | 28879 ft | 437 kts | 296° |
| 2026-05-06 18:06 | 48.77836 | 15.49153 | 29169 ft | 439 kts | 296° |
| 2026-05-06 18:06 | 48.79178 | 15.44987 | 29459 ft | 441 kts | 296° |
| 2026-05-06 18:06 | 48.80523 | 15.40796 | 29748 ft | 443 kts | 296° |
| 2026-05-06 18:06 | 48.81872 | 15.36573 | 29953 ft | 445 kts | 296° |
| 2026-05-06 18:07 | 48.84568 | 15.28124 | 30000 ft | 444 kts | 296° |
| 2026-05-06 18:07 | 48.87248 | 15.19693 | 30016 ft | 444 kts | 295° |
| 2026-05-06 18:08 | 48.90048 | 15.11289 | 30010 ft | 445 kts | 302° |
| 2026-05-06 18:08 | 48.93691 | 15.03704 | 30002 ft | 445 kts | 306° |
| 2026-05-06 18:09 | 48.97383 | 14.96146 | 30011 ft | 444 kts | 306° |
| 2026-05-06 18:09 | 49.01059 | 14.88584 | 30002 ft | 444 kts | 306° |
| 2026-05-06 18:10 | 49.04730 | 14.81024 | 30019 ft | 444 kts | 306° |
| 2026-05-06 18:10 | 49.08391 | 14.73433 | 30001 ft | 444 kts | 306° |
| 2026-05-06 18:11 | 49.12052 | 14.65837 | 30165 ft | 446 kts | 306° |
| 2026-05-06 18:11 | 49.13892 | 14.62022 | 30434 ft | 447 kts | 306° |
| 2026-05-06 18:11 | 49.15741 | 14.58187 | 30687 ft | 449 kts | 306° |
| 2026-05-06 18:12 | 49.17560 | 14.54300 | 30916 ft | 451 kts | 301° |
| 2026-05-06 18:12 | 49.19061 | 14.50083 | 31139 ft | 452 kts | 297° |
| 2026-05-06 18:12 | 49.20530 | 14.45819 | 31373 ft | 454 kts | 297° |
| 2026-05-06 18:12 | 49.21994 | 14.41561 | 31704 ft | 452 kts | 297° |
| 2026-05-06 18:13 | 49.23453 | 14.37303 | 31951 ft | 452 kts | 297° |
| 2026-05-06 18:13 | 49.24899 | 14.33077 | 32006 ft | 442 kts | 297° |
| 2026-05-06 18:13 | 49.27686 | 14.24908 | 32009 ft | 429 kts | 297° |
| 2026-05-06 18:14 | 49.30429 | 14.16828 | 32009 ft | 427 kts | 297° |
| 2026-05-06 18:14 | 49.33159 | 14.08758 | 32009 ft | 426 kts | 297° |
| 2026-05-06 18:15 | 49.35879 | 14.00722 | 32009 ft | 426 kts | 297° |
| 2026-05-06 18:15 | 49.38600 | 13.92643 | 32007 ft | 426 kts | 297° |
| 2026-05-06 18:16 | 49.41308 | 13.84554 | 32005 ft | 426 kts | 297° |
| 2026-05-06 18:16 | 49.44016 | 13.76450 | 32004 ft | 426 kts | 297° |
| 2026-05-06 18:17 | 49.46699 | 13.68399 | 32001 ft | 426 kts | 297° |
| 2026-05-06 18:17 | 49.49415 | 13.60233 | 32000 ft | 426 kts | 297° |
| 2026-05-06 18:18 | 49.52101 | 13.52115 | 31999 ft | 426 kts | 297° |
| 2026-05-06 18:18 | 49.54785 | 13.44002 | 31997 ft | 425 kts | 297° |
| 2026-05-06 18:19 | 49.57463 | 13.35873 | 31997 ft | 425 kts | 296° |
| 2026-05-06 18:19 | 49.60132 | 13.27742 | 31999 ft | 425 kts | 296° |
| 2026-05-06 18:20 | 49.62802 | 13.19609 | 32000 ft | 425 kts | 296° |
| 2026-05-06 18:20 | 49.65477 | 13.11383 | 32001 ft | 425 kts | 296° |
| 2026-05-06 18:21 | 49.68081 | 13.03336 | 32000 ft | 425 kts | 296° |
| 2026-05-06 18:21 | 49.70743 | 12.95111 | 32000 ft | 425 kts | 296° |
| 2026-05-06 18:22 | 49.73369 | 12.86991 | 31997 ft | 425 kts | 296° |
| 2026-05-06 18:22 | 49.76007 | 12.78814 | 31996 ft | 425 kts | 296° |
| 2026-05-06 18:23 | 49.78637 | 12.70622 | 31997 ft | 425 kts | 296° |
| 2026-05-06 18:23 | 49.81254 | 12.62407 | 31997 ft | 425 kts | 296° |
| 2026-05-06 18:24 | 49.83869 | 12.54188 | 31997 ft | 426 kts | 296° |
| 2026-05-06 18:24 | 49.86483 | 12.45943 | 31989 ft | 426 kts | 296° |
| 2026-05-06 18:25 | 49.89091 | 12.37696 | 31999 ft | 426 kts | 296° |
| 2026-05-06 18:25 | 49.91692 | 12.29444 | 32000 ft | 426 kts | 296° |
| 2026-05-06 18:26 | 49.94286 | 12.21191 | 32000 ft | 425 kts | 296° |
| 2026-05-06 18:26 | 49.96875 | 12.12935 | 31997 ft | 425 kts | 296° |
| 2026-05-06 18:27 | 49.99462 | 12.04681 | 31996 ft | 425 kts | 296° |
| 2026-05-06 18:27 | 50.02039 | 11.96403 | 31991 ft | 425 kts | 295° |
| 2026-05-06 18:28 | 50.04605 | 11.88113 | 31991 ft | 426 kts | 295° |
| 2026-05-06 18:28 | 50.07168 | 11.79803 | 31990 ft | 426 kts | 295° |
| 2026-05-06 18:29 | 50.09733 | 11.71473 | 32000 ft | 426 kts | 295° |
| 2026-05-06 18:29 | 50.12294 | 11.63153 | 32006 ft | 426 kts | 295° |
| 2026-05-06 18:30 | 50.14849 | 11.54817 | 32009 ft | 426 kts | 295° |
| 2026-05-06 18:30 | 50.17389 | 11.46502 | 32011 ft | 425 kts | 295° |
| 2026-05-06 18:31 | 50.19898 | 11.38233 | 32007 ft | 425 kts | 295° |
| 2026-05-06 18:31 | 50.22437 | 11.29842 | 32004 ft | 424 kts | 295° |
| 2026-05-06 18:32 | 50.24934 | 11.21567 | 32002 ft | 424 kts | 295° |
| 2026-05-06 18:32 | 50.27443 | 11.13245 | 31999 ft | 423 kts | 295° |
| 2026-05-06 18:33 | 50.29938 | 11.04905 | 31994 ft | 423 kts | 295° |
| 2026-05-06 18:33 | 50.32393 | 10.96673 | 31992 ft | 423 kts | 295° |
| 2026-05-06 18:34 | 50.34879 | 10.88333 | 31991 ft | 423 kts | 295° |
| 2026-05-06 18:34 | 50.37364 | 10.79955 | 31996 ft | 424 kts | 295° |
| 2026-05-06 18:35 | 50.39837 | 10.71587 | 31988 ft | 423 kts | 295° |
| 2026-05-06 18:35 | 50.41078 | 10.67404 | 31541 ft | 421 kts | 295° |
| 2026-05-06 18:35 | 50.42344 | 10.63294 | 31045 ft | 418 kts | 296° |
| 2026-05-06 18:36 | 50.43625 | 10.59266 | 30550 ft | 415 kts | 296° |
| 2026-05-06 18:36 | 50.44921 | 10.55250 | 30050 ft | 412 kts | 297° |
| 2026-05-06 18:36 | 50.46211 | 10.51253 | 29543 ft | 409 kts | 296° |
| 2026-05-06 18:36 | 50.47483 | 10.47285 | 29042 ft | 406 kts | 296° |
| 2026-05-06 18:37 | 50.48743 | 10.43329 | 28546 ft | 403 kts | 296° |
| 2026-05-06 18:37 | 50.49567 | 10.40729 | 28218 ft | 402 kts | 296° |
| 2026-05-06 18:37 | 50.51218 | 10.35492 | 27546 ft | 399 kts | 296° |
| 2026-05-06 18:37 | 50.52443 | 10.31589 | 27045 ft | 396 kts | 296° |
| 2026-05-06 18:38 | 50.53652 | 10.27718 | 26546 ft | 394 kts | 296° |
| 2026-05-06 18:38 | 50.54854 | 10.23856 | 26036 ft | 392 kts | 296° |
| 2026-05-06 18:38 | 50.56049 | 10.20016 | 25550 ft | 390 kts | 296° |
| 2026-05-06 18:38 | 50.56830 | 10.17506 | 25216 ft | 389 kts | 296° |
| 2026-05-06 18:39 | 50.56984 | 10.17012 | 25152 ft | 389 kts | 296° |
| 2026-05-06 18:39 | 50.57374 | 10.15683 | 25044 ft | 385 kts | 294° |
| 2026-05-06 18:39 | 50.58470 | 10.11912 | 24537 ft | 384 kts | 295° |
| 2026-05-06 18:40 | 50.60887 | 10.04206 | 23506 ft | 380 kts | 296° |
| 2026-05-06 18:40 | 50.61677 | 10.01735 | 23157 ft | 379 kts | 296° |
| 2026-05-06 18:40 | 50.62323 | 9.99704 | 22889 ft | 378 kts | 296° |
| 2026-05-06 18:40 | 50.64176 | 9.93819 | 22097 ft | 376 kts | 296° |
| 2026-05-06 18:41 | 50.64889 | 9.91525 | 21785 ft | 375 kts | 296° |
| 2026-05-06 18:41 | 50.67286 | 9.83749 | 20731 ft | 372 kts | 295° |
| 2026-05-06 18:42 | 50.70886 | 9.71990 | 20008 ft | 341 kts | 295° |
| 2026-05-06 18:42 | 50.71919 | 9.68606 | 20010 ft | 339 kts | 295° |
| 2026-05-06 18:42 | 50.72932 | 9.65279 | 20011 ft | 339 kts | 295° |
| 2026-05-06 18:43 | 50.73954 | 9.61928 | 19765 ft | 337 kts | 295° |
| 2026-05-06 18:43 | 50.74975 | 9.58584 | 19519 ft | 337 kts | 295° |
| 2026-05-06 18:43 | 50.75986 | 9.55271 | 19273 ft | 335 kts | 295° |
| 2026-05-06 18:43 | 50.76996 | 9.51956 | 19016 ft | 334 kts | 295° |
| 2026-05-06 18:44 | 50.77998 | 9.48655 | 18768 ft | 332 kts | 295° |
| 2026-05-06 18:44 | 50.78992 | 9.45370 | 18518 ft | 331 kts | 295° |
| 2026-05-06 18:44 | 50.79984 | 9.42088 | 18259 ft | 330 kts | 295° |
| 2026-05-06 18:44 | 50.81027 | 9.38636 | 17997 ft | 329 kts | 295° |
| 2026-05-06 18:45 | 50.81965 | 9.35524 | 17762 ft | 327 kts | 295° |
| 2026-05-06 18:45 | 50.82931 | 9.32271 | 17518 ft | 326 kts | 292° |
| 2026-05-06 18:45 | 50.83540 | 9.28841 | 17201 ft | 323 kts | 282° |
| 2026-05-06 18:45 | 50.83870 | 9.26498 | 16945 ft | 322 kts | 282° |
| 2026-05-06 18:46 | 50.84514 | 9.21898 | 16469 ft | 319 kts | 282° |
| 2026-05-06 18:46 | 50.84987 | 9.18473 | 16118 ft | 318 kts | 282° |
| 2026-05-06 18:46 | 50.85456 | 9.15060 | 15760 ft | 316 kts | 282° |
| 2026-05-06 18:46 | 50.85924 | 9.11672 | 15413 ft | 314 kts | 282° |
| 2026-05-06 18:47 | 50.86388 | 9.08304 | 15068 ft | 313 kts | 282° |
| 2026-05-06 18:47 | 50.86850 | 9.04947 | 14720 ft | 311 kts | 282° |
| 2026-05-06 18:47 | 50.87307 | 9.01616 | 14380 ft | 309 kts | 282° |
| 2026-05-06 18:47 | 50.87761 | 8.98292 | 14037 ft | 308 kts | 282° |
| 2026-05-06 18:48 | 50.88213 | 8.94987 | 13693 ft | 306 kts | 282° |
| 2026-05-06 18:48 | 50.88661 | 8.91701 | 13354 ft | 304 kts | 282° |
| 2026-05-06 18:48 | 50.89109 | 8.88410 | 13003 ft | 303 kts | 282° |
| 2026-05-06 18:48 | 50.89548 | 8.85175 | 12653 ft | 301 kts | 282° |
| 2026-05-06 18:49 | 50.89986 | 8.81941 | 12312 ft | 300 kts | 282° |
| 2026-05-06 18:49 | 50.90420 | 8.78721 | 11961 ft | 298 kts | 282° |
| 2026-05-06 18:49 | 50.90852 | 8.75521 | 11607 ft | 297 kts | 282° |
| 2026-05-06 18:49 | 50.91281 | 8.72326 | 11255 ft | 295 kts | 282° |
| 2026-05-06 18:50 | 50.91705 | 8.69154 | 10898 ft | 293 kts | 282° |
| 2026-05-06 18:50 | 50.92128 | 8.65996 | 10538 ft | 292 kts | 282° |
| 2026-05-06 18:50 | 50.92550 | 8.62860 | 10175 ft | 290 kts | 282° |
| 2026-05-06 18:50 | 50.92969 | 8.59744 | 9993 ft | 288 kts | 282° |
| 2026-05-06 18:51 | 50.93382 | 8.56644 | 10005 ft | 289 kts | 282° |
| 2026-05-06 18:51 | 50.93779 | 8.53523 | 10013 ft | 289 kts | 277° |
| 2026-05-06 18:51 | 50.93684 | 8.50361 | 10006 ft | 289 kts | 255° |
| 2026-05-06 18:51 | 50.93062 | 8.47339 | 10009 ft | 288 kts | 251° |
| 2026-05-06 18:52 | 50.92406 | 8.44331 | 10012 ft | 289 kts | 251° |
| 2026-05-06 18:52 | 50.91776 | 8.41458 | 10012 ft | 289 kts | 251° |
| 2026-05-06 18:52 | 50.91116 | 8.38460 | 10008 ft | 289 kts | 251° |
| 2026-05-06 18:52 | 50.90455 | 8.35457 | 10004 ft | 289 kts | 251° |
| 2026-05-06 18:53 | 50.90015 | 8.33460 | 10011 ft | 289 kts | 251° |
| 2026-05-06 18:53 | 50.89351 | 8.30456 | 10008 ft | 289 kts | 251° |
| 2026-05-06 18:53 | 50.88686 | 8.27455 | 10006 ft | 289 kts | 251° |
| 2026-05-06 18:53 | 50.88022 | 8.24445 | 10007 ft | 289 kts | 251° |
| 2026-05-06 18:54 | 50.87141 | 8.20463 | 10007 ft | 289 kts | 251° |
| 2026-05-06 18:54 | 50.86694 | 8.18437 | 10012 ft | 289 kts | 251° |
| 2026-05-06 18:54 | 50.86031 | 8.15443 | 10009 ft | 289 kts | 251° |
| 2026-05-06 18:54 | 50.85364 | 8.12437 | 10008 ft | 289 kts | 251° |
| 2026-05-06 18:55 | 50.84696 | 8.09440 | 10008 ft | 289 kts | 251° |
| 2026-05-06 18:55 | 50.84032 | 8.06454 | 10009 ft | 289 kts | 251° |
| 2026-05-06 18:55 | 50.83364 | 8.03456 | 9868 ft | 289 kts | 251° |
| 2026-05-06 18:55 | 50.82697 | 8.00458 | 9753 ft | 287 kts | 251° |
| 2026-05-06 18:56 | 50.82020 | 7.97441 | 9614 ft | 287 kts | 250° |
| 2026-05-06 18:56 | 50.81360 | 7.94506 | 9496 ft | 286 kts | 250° |
| 2026-05-06 18:56 | 50.80694 | 7.91543 | 9375 ft | 286 kts | 250° |
| 2026-05-06 18:56 | 50.80021 | 7.88545 | 9241 ft | 286 kts | 250° |
| 2026-05-06 18:57 | 50.79358 | 7.85592 | 9121 ft | 285 kts | 250° |
| 2026-05-06 18:57 | 50.78696 | 7.82646 | 8867 ft | 284 kts | 250° |
| 2026-05-06 18:57 | 50.78036 | 7.79712 | 8495 ft | 283 kts | 250° |
| 2026-05-06 18:57 | 50.77379 | 7.76796 | 8097 ft | 281 kts | 250° |
| 2026-05-06 18:58 | 50.76722 | 7.73890 | 7683 ft | 280 kts | 250° |
| 2026-05-06 18:58 | 50.76065 | 7.70998 | 7288 ft | 279 kts | 250° |
| 2026-05-06 18:58 | 50.75413 | 7.68127 | 6867 ft | 278 kts | 250° |
| 2026-05-06 18:58 | 50.74766 | 7.65290 | 6441 ft | 277 kts | 250° |
| 2026-05-06 18:59 | 50.74106 | 7.62391 | 6019 ft | 276 kts | 250° |
| 2026-05-06 18:59 | 50.73458 | 7.59546 | 5587 ft | 275 kts | 250° |
| 2026-05-06 18:59 | 50.72813 | 7.56712 | 5256 ft | 271 kts | 250° |
| 2026-05-06 18:59 | 50.72198 | 7.54007 | 5078 ft | 260 kts | 250° |
| 2026-05-06 19:00 | 50.71670 | 7.51315 | 4940 ft | 247 kts | 255° |
| 2026-05-06 19:00 | 50.71241 | 7.48757 | 4783 ft | 237 kts | 255° |
| 2026-05-06 19:00 | 50.70833 | 7.46287 | 4492 ft | 234 kts | 256° |
| 2026-05-06 19:00 | 50.70423 | 7.43781 | 4156 ft | 232 kts | 257° |
| 2026-05-06 19:01 | 50.70371 | 7.41297 | 3823 ft | 230 kts | 279° |
| 2026-05-06 19:01 | 50.70727 | 7.38839 | 3468 ft | 230 kts | 291° |
| 2026-05-06 19:01 | 50.71556 | 7.36715 | 3167 ft | 227 kts | 314° |
| 2026-05-06 19:01 | 50.72718 | 7.35023 | 3117 ft | 228 kts | 317° |
| 2026-05-06 19:02 | 50.73895 | 7.33327 | 3115 ft | 222 kts | 317° |
| 2026-05-06 19:02 | 50.74988 | 7.31753 | 3025 ft | 211 kts | 317° |
| 2026-05-06 19:02 | 50.76062 | 7.30209 | 2812 ft | 206 kts | 317° |
| 2026-05-06 19:02 | 50.77108 | 7.28704 | 2538 ft | 200 kts | 317° |
| 2026-05-06 19:03 | 50.78102 | 7.27274 | 2268 ft | 186 kts | 317° |
| 2026-05-06 19:03 | 50.79034 | 7.25931 | 2017 ft | 172 kts | 317° |
| 2026-05-06 19:03 | 50.79859 | 7.24743 | 1828 ft | 154 kts | 317° |
| 2026-05-06 19:03 | 50.80615 | 7.23652 | 1628 ft | 146 kts | 317° |
| 2026-05-06 19:04 | 50.81354 | 7.22587 | 1440 ft | 142 kts | 317° |
| 2026-05-06 19:04 | 50.82091 | 7.21545 | 1232 ft | 141 kts | 318° |
| 2026-05-06 19:04 | 50.82811 | 7.20508 | 1065 ft | 140 kts | 316° |
| 2026-05-06 19:04 | 50.83513 | 7.19440 | 878 ft | 140 kts | 316° |
| 2026-05-06 19:05 | 50.84242 | 7.18412 | 698 ft | 140 kts | 319° |
| 2026-05-06 19:05 | 50.84968 | 7.17395 | 487 ft | 139 kts | 316° |
| 2026-05-06 19:05 | 50.85676 | 7.16355 | 358 ft | 139 kts | 316° |
| 2026-05-06 19:05 | 50.86361 | 7.15341 | 270 ft | 123 kts | 320° |
| 2026-05-06 19:06 | 50.86872 | 7.14610 | 255 ft | 75 kts | 317° |
| 2026-05-06 19:06 | 50.87141 | 7.14221 | 259 ft | 42 kts | 317° |
| 2026-05-06 19:06 | 50.87261 | 7.14003 | 254 ft | 23 kts | 301° |
| 2026-05-06 19:06 | 50.87310 | 7.13789 | 248 ft | 19 kts | 282° |
| 2026-05-06 19:07 | 50.87333 | 7.13581 | 241 ft | 17 kts | 278° |
| 2026-05-06 19:07 | 50.87388 | 7.13410 | 238 ft | 17 kts | 314° |
| 2026-05-06 19:07 | 50.87484 | 7.13265 | 233 ft | 21 kts | 317° |
| 2026-05-06 19:07 | 50.87594 | 7.13106 | 231 ft | 21 kts | 317° |
| 2026-05-06 19:08 | 50.87704 | 7.12944 | 231 ft | 20 kts | 317° |
| 2026-05-06 19:08 | 50.87781 | 7.12826 | 231 ft | 10 kts | 306° |
| 2026-05-06 19:08 | 50.87786 | 7.12721 | 230 ft | 9 kts | 274° |
| 2026-05-06 19:08 | 50.87806 | 7.12639 | 230 ft | 7 kts | 299° |
| 2026-05-06 19:09 | 50.87839 | 7.12620 | 230 ft | 5 kts | 346° |
| 2026-05-06 19:09 | 50.87872 | 7.12606 | 230 ft | 4 kts | 342° |
| 2026-05-06 19:09 | 50.87898 | 7.12614 | 230 ft | 6 kts | 8° |
| 2026-05-06 19:09 | 50.87937 | 7.12589 | 231 ft | 6 kts | 316° |
| 2026-05-06 19:10 | 50.87953 | 7.12546 | 230 ft | 4 kts | 270° |
| 2026-05-06 19:10 | 50.87945 | 7.12515 | 230 ft | 3 kts | 244° |
| 2026-05-06 19:10 | 50.87939 | 7.12492 | 230 ft | 2 kts | 251° |
| 2026-05-06 19:10 | 50.87936 | 7.12476 | 230 ft | 1 kts | 256° |
| 2026-05-06 19:11 | 50.87935 | 7.12468 | 230 ft | 1 kts | 258° |
| 2026-05-06 19:11 | 50.87933 | 7.12451 | 230 ft | 0 kts | 259° |